Crocheron, Maryland
Current Conditions -  °F | °C
As of 4:52 PM on Monday 20 Oct 2014 (Local Time) from KNHK Reporting Station
Broken Clouds Broken Clouds  
Wind Chill: 64°   Ceiling: 25000
Heat Index: 64°   Visibility: 10mi
Dew Point: 39°   Wind: 10mph
Humidity: 40%   Direction: 190°S
Pressure: 29.97"   Gusts: 17mph
Location:  38.24°N, 76.05°W
Report Text: KNHK 202052Z 19009G15KT 10SM FEW180 BKN250 18/04 A2997 RMK AO2 SLP149 T01780039 56018
Loading
Personal Weather Stations






























Interactive Weather Map
Tropical Storm Tracking
New forecast layout! Learn more

10-Day Weather Forecast

Advertisements
Track Severe Weather on mobile